Time;durP1;ratioP1;P1;durP2;ratioP2;P2;SDS_P1;SDS_P2;PMS_P1;PMS_P2;Temp;Humidity;BMP_temperature;BMP_pressure;BME280_temperature;BME280_humidity;BME280_pressure;Samples;Min_cycle;Max_cycle;Signal;HPM_P1;HPM_P2
2021/11/17 02:27:50;;;;;;;79.40;35.23;;;;;;;;;;5032918;28;21024;-71
2021/11/17 02:30:37;;;;;;;91.57;36.13;;;;;;;;;;5033306;28;20230;-71
2021/11/17 02:33:25;;;;;;;89.93;35.90;;;;;;;;;;5033449;28;20782;-72
2021/11/17 02:36:08;;;;;;;82.03;35.83;;;;;;;;;;5030983;28;20230;-72
2021/11/17 02:38:51;;;;;;;85.43;35.97;;;;;;;;;;5032348;28;20207;-71
2021/11/17 02:41:42;;;;;;;69.93;31.37;;;;;;;;;;5030927;28;20203;-72
2021/11/17 02:44:30;;;;;;;82.53;36.00;;;;;;;;;;5021227;28;20229;-72
2021/11/17 02:47:17;;;;;;;87.33;37.30;;;;;;;;;;5031602;28;20215;-71
2021/11/17 02:49:56;;;;;;;80.57;33.37;;;;;;;;;;5030480;28;20260;-71
2021/11/17 02:52:38;;;;;;;81.27;35.90;;;;;;;;;;5030526;28;20234;-71
2021/11/17 02:55:25;;;;;;;79.97;35.23;;;;;;;;;;5030835;28;20206;-71
2021/11/17 02:58:16;;;;;;;74.67;33.47;;;;;;;;;;5032731;28;20211;-71
2021/11/17 03:01:04;;;;;;;80.47;37.43;;;;;;;;;;5031217;28;20223;-72
2021/11/17 03:03:44;;;;;;;80.13;37.23;;;;;;;;;;5031882;28;20553;-71
2021/11/17 03:06:29;;;;;;;86.90;38.87;;;;;;;;;;5031799;28;20585;-72
2021/11/17 03:09:11;;;;;;;77.63;34.90;;;;;;;;;;5031112;28;20298;-71
2021/11/17 03:12:14;;;;;;;82.03;36.87;;;;;;;;;;5030385;28;20288;-72
2021/11/17 03:15:08;;;;;;;85.23;37.40;;;;;;;;;;4950699;28;20679;-71
2021/11/17 03:17:52;;;;;;;79.17;36.03;;;;;;;;;;5024949;28;20264;-71
2021/11/17 03:20:32;;;;;;;79.07;37.03;;;;;;;;;;5031208;28;20931;-71
2021/11/17 03:23:11;;;;;;;93.40;39.87;;;;;;;;;;5030825;28;20231;-72
2021/11/17 03:25:55;;;;;;;84.67;38.63;;;;;;;;;;5031190;28;20273;-71
2021/11/17 03:28:36;;;;;;;90.90;39.03;;;;;;;;;;5030824;28;20277;-71
2021/11/17 03:31:18;;;;;;;71.00;33.00;;;;;;;;;;5030739;28;20283;-71
2021/11/17 03:34:16;;;;;;;85.40;38.50;;;;;;;;;;5030412;28;20217;-71
2021/11/17 03:37:12;;;;;;;79.40;36.70;;;;;;;;;;5029967;28;20285;-72
2021/11/17 03:40:05;;;;;;;90.47;38.17;;;;;;;;;;5035788;28;20210;-72
2021/11/17 03:42:55;;;;;;;78.97;38.53;;;;;;;;;;5035848;28;20208;-72
2021/11/17 03:45:55;;;;;;;84.23;38.40;;;;;;;;;;5034915;28;20215;-71
2021/11/17 03:48:34;;;;;;;89.70;39.77;;;;;;;;;;5036453;28;20888;-70
2021/11/17 03:51:21;;;;;;;86.53;40.23;;;;;;;;;;5034314;28;20303;-70
2021/11/17 03:54:00;;;;;;;81.17;35.80;;;;;;;;;;5034862;28;21068;-70
2021/11/17 03:56:49;;;;;;;81.87;38.27;;;;;;;;;;5035506;28;20654;-70
2021/11/17 03:59:31;;;;;;;80.20;37.50;;;;;;;;;;5035155;28;20392;-70
2021/11/17 04:02:10;;;;;;;87.93;38.53;;;;;;;;;;5034123;28;20316;-71
2021/11/17 04:05:01;;;;;;;72.50;34.07;;;;;;;;;;5032461;28;20262;-70
2021/11/17 04:07:40;;;;;;;80.63;35.70;;;;;;;;;;5034753;28;20219;-70
2021/11/17 04:10:26;;;;;;;81.20;35.90;;;;;;;;;;5033559;28;20230;-71
2021/11/17 04:13:04;;;;;;;80.73;38.77;;;;;;;;;;5034503;28;20226;-70
2021/11/17 04:15:53;;;;;;;86.73;39.00;;;;;;;;;;5034177;28;20589;-70
2021/11/17 04:18:31;;;;;;;76.43;36.00;;;;;;;;;;5034509;28;20261;-70
2021/11/17 04:21:15;;;;;;;75.23;35.53;;;;;;;;;;5033807;28;20686;-71
2021/11/17 04:23:54;;;;;;;86.53;40.10;;;;;;;;;;5034723;28;20215;-70
2021/11/17 04:26:46;;;;;;;82.87;40.40;;;;;;;;;;5033567;28;20246;-71
2021/11/17 04:29:29;;;;;;;70.13;33.60;;;;;;;;;;5033360;28;20261;-70
2021/11/17 04:32:39;;;;;;;77.73;37.93;;;;;;;;;;5032643;28;21101;-71
2021/11/17 04:35:30;;;;;;;74.97;36.80;;;;;;;;;;5033725;28;20265;-71
2021/11/17 04:38:19;;;;;;;86.10;37.97;;;;;;;;;;5005950;28;20723;-70
2021/11/17 04:41:13;;;;;;;84.00;38.30;;;;;;;;;;5033592;28;20208;-71
2021/11/17 04:44:01;;;;;;;78.10;33.43;;;;;;;;;;5034077;28;20223;-71
2021/11/17 04:46:46;;;;;;;69.57;34.70;;;;;;;;;;5031592;28;20230;-71
2021/11/17 04:49:30;;;;;;;71.57;32.60;;;;;;;;;;5032946;28;20221;-71
2021/11/17 04:52:19;;;;;;;83.30;38.73;;;;;;;;;;5031236;28;20235;-71
2021/11/17 04:55:01;;;;;;;85.03;39.30;;;;;;;;;;5033672;28;20213;-71
2021/11/17 04:57:41;;;;;;;76.37;37.13;;;;;;;;;;5034484;28;20268;-71
2021/11/17 05:00:28;;;;;;;77.43;37.23;;;;;;;;;;5032873;28;20969;-71
2021/11/17 05:03:07;;;;;;;78.20;36.87;;;;;;;;;;5032536;28;20304;-71
2021/11/17 05:05:48;;;;;;;76.97;35.47;;;;;;;;;;5033875;28;21137;-71
2021/11/17 05:08:23;;;;;;;75.97;34.73;;;;;;;;;;5033800;28;20209;-71
2021/11/17 05:11:01;;;;;;;69.97;34.50;;;;;;;;;;5033732;28;20259;-71
2021/11/17 05:13:38;;;;;;;77.13;35.93;;;;;;;;;;5032303;28;20219;-71
2021/11/17 05:16:19;;;;;;;69.23;33.93;;;;;;;;;;5033393;28;20673;-71
2021/11/17 05:18:53;;;;;;;69.77;34.60;;;;;;;;;;5033642;28;20211;-71
2021/11/17 05:21:33;;;;;;;66.13;31.10;;;;;;;;;;5029896;28;20232;-71
2021/11/17 05:24:14;;;;;;;67.97;31.10;;;;;;;;;;5032600;28;20241;-71
2021/11/17 05:26:52;;;;;;;71.13;32.90;;;;;;;;;;5034998;28;20657;-71
2021/11/17 05:29:33;;;;;;;68.73;31.33;;;;;;;;;;5031708;28;20235;-71
2021/11/17 05:32:24;;;;;;;72.68;41.67;;;;;;;;;;5031228;28;20923;-76
2021/11/17 05:35:03;;;;;;;69.97;32.50;;;;;;;;;;5031273;28;20207;-77
2021/11/17 05:37:42;;;;;;;71.87;34.77;;;;;;;;;;5033632;28;20219;-77
2021/11/17 05:40:21;;;;;;;59.50;29.00;;;;;;;;;;5033581;28;20215;-76
2021/11/17 05:42:59;;;;;;;58.57;28.23;;;;;;;;;;5031932;28;20207;-77
2021/11/17 05:45:41;;;;;;;58.80;27.93;;;;;;;;;;5033397;28;20226;-76
2021/11/17 05:48:20;;;;;;;60.87;28.70;;;;;;;;;;5033940;28;20211;-76
2021/11/17 05:51:02;;;;;;;65.10;31.23;;;;;;;;;;5031016;28;20269;-76
2021/11/17 05:53:46;;;;;;;64.33;30.90;;;;;;;;;;5033087;28;20281;-76
2021/11/17 05:56:26;;;;;;;67.23;31.60;;;;;;;;;;5031546;28;20214;-76
2021/11/17 05:59:21;;;;;;;63.77;28.80;;;;;;;;;;5033097;28;20215;-76
2021/11/17 06:02:08;;;;;;;64.90;29.80;;;;;;;;;;5033840;28;20210;-78
2021/11/17 06:04:34;;;;;;;65.73;30.70;;;;;;;;;;5027527;28;20224;-76
2021/11/17 06:07:00;;;;;;;62.30;30.47;;;;;;;;;;5032222;28;20318;-78
2021/11/17 06:09:27;;;;;;;59.50;30.83;;;;;;;;;;5032956;28;20207;-78
2021/11/17 06:11:58;;;;;;;67.63;31.37;;;;;;;;;;5031744;28;20242;-77
2021/11/17 06:14:27;;;;;;;61.53;29.23;;;;;;;;;;5031829;28;20226;-76
2021/11/17 06:16:57;;;;;;;59.20;30.10;;;;;;;;;;5031214;28;20219;-76
2021/11/17 06:19:26;;;;;;;66.70;29.63;;;;;;;;;;5031546;28;20215;-76
2021/11/17 06:21:53;;;;;;;64.37;29.20;;;;;;;;;;5031216;28;20850;-76
2021/11/17 06:24:22;;;;;;;66.10;30.53;;;;;;;;;;5032072;28;20211;-76
2021/11/17 06:26:50;;;;;;;59.13;28.83;;;;;;;;;;5032154;28;20210;-76
2021/11/17 06:29:21;;;;;;;58.97;28.80;;;;;;;;;;5032154;28;20231;-76
2021/11/17 06:31:49;;;;;;;61.03;29.67;;;;;;;;;;5031412;28;20280;-76
2021/11/17 06:34:40;;;;;;;61.50;28.77;;;;;;;;;;5031290;28;20219;-76
2021/11/17 06:37:08;;;;;;;57.17;26.13;;;;;;;;;;5015514;28;20239;-76
2021/11/17 06:39:35;;;;;;;60.90;28.97;;;;;;;;;;5032116;28;20216;-77
2021/11/17 06:42:03;;;;;;;59.17;27.27;;;;;;;;;;5033639;28;20217;-78
2021/11/17 06:44:31;;;;;;;56.17;27.57;;;;;;;;;;5033326;28;20557;-76
2021/11/17 06:46:58;;;;;;;58.90;28.70;;;;;;;;;;5030559;28;20215;-78
2021/11/17 06:49:24;;;;;;;55.20;27.57;;;;;;;;;;5032753;28;20211;-76
2021/11/17 06:51:51;;;;;;;61.47;29.30;;;;;;;;;;5030256;28;20249;-76
2021/11/17 06:54:18;;;;;;;61.07;28.60;;;;;;;;;;5030854;28;20210;-76
2021/11/17 06:56:44;;;;;;;62.97;27.87;;;;;;;;;;5032435;28;20218;-76
2021/11/17 06:59:11;;;;;;;63.03;30.20;;;;;;;;;;5030767;28;20264;-76
2021/11/17 07:01:39;;;;;;;66.97;30.33;;;;;;;;;;5027945;28;20257;-76
2021/11/17 07:04:05;;;;;;;59.47;30.87;;;;;;;;;;5030064;28;20203;-76
2021/11/17 07:06:33;;;;;;;64.60;29.50;;;;;;;;;;5029331;28;20281;-77
2021/11/17 07:09:00;;;;;;;63.07;28.80;;;;;;;;;;5028669;28;20218;-76
2021/11/17 07:11:26;;;;;;;67.47;31.03;;;;;;;;;;5029550;28;20463;-76
2021/11/17 07:13:53;;;;;;;72.33;31.13;;;;;;;;;;5033382;28;20802;-76
2021/11/17 07:16:19;;;;;;;65.13;30.23;;;;;;;;;;5032553;28;20218;-76
2021/11/17 07:18:47;;;;;;;73.13;33.30;;;;;;;;;;5030983;28;20226;-76
2021/11/17 07:21:14;;;;;;;66.47;32.93;;;;;;;;;;5033061;28;20246;-76
2021/11/17 07:23:40;;;;;;;67.93;32.30;;;;;;;;;;5033525;28;20337;-76
2021/11/17 07:26:08;;;;;;;69.37;31.63;;;;;;;;;;5034239;28;20662;-76
2021/11/17 07:28:35;;;;;;;71.57;32.60;;;;;;;;;;5033161;28;20211;-76
2021/11/17 07:31:01;;;;;;;71.27;34.10;;;;;;;;;;5031748;28;20304;-76
2021/11/17 07:33:28;;;;;;;73.70;31.47;;;;;;;;;;5033042;28;20235;-74
2021/11/17 07:35:56;;;;;;;76.17;34.13;;;;;;;;;;5031770;28;20249;-75
2021/11/17 07:38:25;;;;;;;78.20;34.37;;;;;;;;;;5032445;28;20222;-74
2021/11/17 07:40:52;;;;;;;82.57;35.23;;;;;;;;;;5034342;28;20211;-75
2021/11/17 07:43:21;;;;;;;76.23;34.77;;;;;;;;;;5032970;28;20290;-75
2021/11/17 07:45:47;;;;;;;75.20;35.60;;;;;;;;;;5032783;28;20215;-75
2021/11/17 07:48:16;;;;;;;83.03;35.57;;;;;;;;;;5032642;28;20220;-75
2021/11/17 07:50:45;;;;;;;85.03;37.17;;;;;;;;;;5032884;28;20245;-76
2021/11/17 07:53:14;;;;;;;88.57;38.00;;;;;;;;;;5033245;28;20583;-75
2021/11/17 07:55:43;;;;;;;87.93;37.37;;;;;;;;;;5034480;28;20219;-75
2021/11/17 07:58:09;;;;;;;84.23;36.47;;;;;;;;;;5032929;28;20289;-76
2021/11/17 08:00:40;;;;;;;94.10;36.73;;;;;;;;;;5034107;28;20281;-76
2021/11/17 08:03:06;;;;;;;86.67;39.03;;;;;;;;;;5033406;28;20211;-77
2021/11/17 08:05:33;;;;;;;105.40;41.43;;;;;;;;;;5034806;28;20869;-76
2021/11/17 08:08:01;;;;;;;94.47;38.67;;;;;;;;;;5032271;28;20267;-77
2021/11/17 08:10:33;;;;;;;95.53;39.90;;;;;;;;;;5032709;28;20238;-76
2021/11/17 08:13:00;;;;;;;91.33;38.00;;;;;;;;;;5032817;28;20245;-77
2021/11/17 08:15:26;;;;;;;99.27;41.30;;;;;;;;;;5034672;28;20252;-77
2021/11/17 08:17:53;;;;;;;94.90;39.03;;;;;;;;;;5033827;28;20549;-77
2021/11/17 08:20:20;;;;;;;89.97;38.27;;;;;;;;;;5031701;28;20264;-76
2021/11/17 08:22:48;;;;;;;86.47;41.03;;;;;;;;;;5032706;28;20231;-77
2021/11/17 08:25:17;;;;;;;89.43;40.67;;;;;;;;;;5028461;28;20210;-77
2021/11/17 08:27:45;;;;;;;93.50;39.83;;;;;;;;;;5035248;28;20204;-76
2021/11/17 08:30:13;;;;;;;95.57;41.70;;;;;;;;;;5031060;28;20219;-77
2021/11/17 08:32:43;;;;;;;89.90;40.17;;;;;;;;;;5032695;28;20234;-75
2021/11/17 08:35:11;;;;;;;93.70;40.40;;;;;;;;;;5035695;28;20205;-78
2021/11/17 08:37:38;;;;;;;98.20;41.97;;;;;;;;;;5033965;28;20726;-78
2021/11/17 08:40:09;;;;;;;87.57;37.77;;;;;;;;;;5034318;28;20654;-78
2021/11/17 08:42:35;;;;;;;91.80;40.33;;;;;;;;;;5033901;28;20835;-76
2021/11/17 08:45:04;;;;;;;94.27;42.97;;;;;;;;;;5032850;28;20664;-78
2021/11/17 08:47:30;;;;;;;89.63;39.23;;;;;;;;;;5034420;28;20234;-78
2021/11/17 08:49:57;;;;;;;97.60;41.80;;;;;;;;;;5034303;28;20211;-77
2021/11/17 08:52:26;;;;;;;101.97;45.60;;;;;;;;;;5026459;28;20252;-76
2021/11/17 08:54:53;;;;;;;96.47;41.43;;;;;;;;;;5027247;28;20216;-79
2021/11/17 08:57:20;;;;;;;96.17;41.03;;;;;;;;;;5029839;28;20245;-78
2021/11/17 08:59:49;;;;;;;91.63;39.60;;;;;;;;;;5029369;28;20230;-76
2021/11/17 09:02:17;;;;;;;101.00;44.40;;;;;;;;;;5017230;28;21106;-77
2021/11/17 09:04:44;;;;;;;109.50;43.40;;;;;;;;;;5025399;28;20488;-76
2021/11/17 09:07:12;;;;;;;126.57;48.00;;;;;;;;;;5027066;28;20231;-75
2021/11/17 09:09:38;;;;;;;127.60;47.30;;;;;;;;;;5025493;28;20211;-77
2021/11/17 09:12:06;;;;;;;152.53;50.73;;;;;;;;;;5024090;28;20326;-78
2021/11/17 09:14:33;;;;;;;137.17;48.83;;;;;;;;;;5029588;28;20226;-76
2021/11/17 09:17:00;;;;;;;135.83;48.67;;;;;;;;;;5027447;28;20230;-76
2021/11/17 09:19:28;;;;;;;133.37;47.43;;;;;;;;;;5029536;28;20674;-78
2021/11/17 09:21:55;;;;;;;99.97;41.20;;;;;;;;;;5030468;28;20243;-78
2021/11/17 09:24:22;;;;;;;93.33;40.73;;;;;;;;;;5028384;28;20802;-78
2021/11/17 09:26:51;;;;;;;92.40;38.27;;;;;;;;;;5027578;28;20240;-76
2021/11/17 09:29:18;;;;;;;91.23;40.37;;;;;;;;;;5028153;28;20278;-78
2021/11/17 09:31:46;;;;;;;89.60;40.90;;;;;;;;;;5030101;28;20235;-78
2021/11/17 09:34:15;;;;;;;99.70;43.53;;;;;;;;;;5028892;28;20310;-77
2021/11/17 09:36:43;;;;;;;86.00;41.57;;;;;;;;;;5027695;28;20243;-77
2021/11/17 09:39:11;;;;;;;101.20;42.80;;;;;;;;;;5029021;28;20222;-77
2021/11/17 09:41:41;;;;;;;88.87;40.63;;;;;;;;;;5026334;28;20685;-77
2021/11/17 09:44:14;;;;;;;97.00;40.97;;;;;;;;;;5026781;28;20228;-77
2021/11/17 09:46:43;;;;;;;81.33;37.13;;;;;;;;;;5028686;28;20207;-77
2021/11/17 09:49:13;;;;;;;81.33;37.23;;;;;;;;;;5026933;28;20574;-77
2021/11/17 09:51:44;;;;;;;71.60;35.20;;;;;;;;;;5028127;28;20232;-77
2021/11/17 09:54:15;;;;;;;65.97;33.40;;;;;;;;;;5025486;28;20221;-76
2021/11/17 09:56:46;;;;;;;68.13;34.13;;;;;;;;;;5028940;28;20221;-78
2021/11/17 09:59:18;;;;;;;61.97;31.10;;;;;;;;;;5032568;28;20233;-78
2021/11/17 10:01:48;;;;;;;58.13;32.13;;;;;;;;;;5032491;28;20655;-78
2021/11/17 10:04:21;;;;;;;58.07;30.97;;;;;;;;;;5030544;28;20209;-79
2021/11/17 10:10:08;;;;;;;50.83;27.63;;;;;;;;;;5029844;28;20585;-79
2021/11/17 10:12:52;;;;;;;46.00;25.63;;;;;;;;;;5031904;28;20708;-78
2021/11/17 10:15:22;;;;;;;42.77;24.23;;;;;;;;;;5028535;28;20237;-78
2021/11/17 10:17:54;;;;;;;27.10;16.97;;;;;;;;;;5029646;28;20652;-79
2021/11/17 10:20:32;;;;;;;28.33;16.67;;;;;;;;;;5029630;28;20217;-79
2021/11/17 10:23:24;;;;;;;25.50;15.23;;;;;;;;;;5030709;28;20227;-78
2021/11/17 10:25:55;;;;;;;30.20;14.83;;;;;;;;;;5030843;28;20544;-78
2021/11/17 10:28:28;;;;;;;23.47;12.67;;;;;;;;;;5025468;28;20909;-78
2021/11/17 10:31:04;;;;;;;24.43;10.87;;;;;;;;;;5030406;28;20207;-78
2021/11/17 10:33:56;;;;;;;22.00;9.77;;;;;;;;;;5021957;28;20527;-78
2021/11/17 10:36:44;;;;;;;21.83;8.43;;;;;;;;;;5023267;28;20226;-78
2021/11/17 10:39:15;;;;;;;17.57;7.93;;;;;;;;;;5026119;28;20217;-78
2021/11/17 10:42:11;;;;;;;16.23;8.30;;;;;;;;;;5025516;28;20282;-77
2021/11/17 10:44:49;;;;;;;16.90;8.43;;;;;;;;;;5025628;28;20207;-75
2021/11/17 10:47:31;;;;;;;20.50;9.90;;;;;;;;;;5026376;28;20225;-75
2021/11/17 10:50:10;;;;;;;23.50;10.60;;;;;;;;;;5025579;28;20221;-75
2021/11/17 10:52:42;;;;;;;20.10;9.97;;;;;;;;;;5026103;28;20540;-75
2021/11/17 10:55:17;;;;;;;19.30;9.90;;;;;;;;;;5031244;28;20259;-77
2021/11/17 10:57:45;;;;;;;17.73;8.77;;;;;;;;;;5029244;28;20617;-78
2021/11/17 11:00:14;;;;;;;19.47;9.03;;;;;;;;;;5030725;28;20642;-78
2021/11/17 11:02:42;;;;;;;17.03;8.33;;;;;;;;;;5030202;28;20228;-78
2021/11/17 11:05:13;;;;;;;21.37;7.87;;;;;;;;;;5028888;28;20274;-78
2021/11/17 11:07:46;;;;;;;20.70;8.20;;;;;;;;;;5029513;28;20219;-74
2021/11/17 11:10:17;;;;;;;20.90;7.03;;;;;;;;;;5029037;28;20244;-74
2021/11/17 11:12:47;;;;;;;15.90;5.47;;;;;;;;;;5031050;28;20313;-74
2021/11/17 11:15:20;;;;;;;15.50;5.37;;;;;;;;;;5029696;28;20215;-74
2021/11/17 11:18:08;;;;;;;13.17;3.73;;;;;;;;;;5030468;28;20276;-74
2021/11/17 11:20:45;;;;;;;14.53;4.53;;;;;;;;;;5029188;28;20663;-75
2021/11/17 11:23:31;;;;;;;14.00;3.63;;;;;;;;;;5027790;28;20554;-75
2021/11/17 11:26:14;;;;;;;13.93;3.70;;;;;;;;;;5029309;28;20208;-75
2021/11/17 11:28:49;;;;;;;15.93;3.33;;;;;;;;;;5030056;28;20214;-75
2021/11/17 11:31:40;;;;;;;13.97;3.10;;;;;;;;;;5029645;28;20229;-75
2021/11/17 11:34:31;;;;;;;14.23;3.60;;;;;;;;;;5027705;28;20241;-75
2021/11/17 11:36:58;;;;;;;18.47;3.97;;;;;;;;;;5029517;28;20237;-74
2021/11/17 11:39:46;;;;;;;15.40;3.53;;;;;;;;;;5030518;28;20217;-75
2021/11/17 11:42:38;;;;;;;14.20;3.53;;;;;;;;;;5029638;28;20215;-77
2021/11/17 11:45:38;;;;;;;14.17;3.43;;;;;;;;;;5028573;28;20294;-75
2021/11/17 11:48:07;;;;;;;14.10;2.90;;;;;;;;;;5028916;28;20909;-75
2021/11/17 11:51:03;;;;;;;12.20;2.83;;;;;;;;;;5026976;28;20720;-75
2021/11/17 11:54:09;;;;;;;13.67;3.20;;;;;;;;;;5027445;28;20234;-75
2021/11/17 11:56:40;;;;;;;14.70;4.03;;;;;;;;;;4968362;28;20282;-75
2021/11/17 11:59:09;;;;;;;15.07;3.37;;;;;;;;;;4970522;28;20221;-75
2021/11/17 12:01:39;;;;;;;9.47;2.63;;;;;;;;;;5004188;28;20214;-76
2021/11/17 12:04:09;;;;;;;11.77;2.80;;;;;;;;;;5032655;28;20321;-75
2021/11/17 12:06:40;;;;;;;12.33;3.37;;;;;;;;;;5033326;28;20233;-75
2021/11/17 12:09:29;;;;;;;10.63;3.80;;;;;;;;;;5032078;28;20780;-75
2021/11/17 12:11:59;;;;;;;12.47;2.87;;;;;;;;;;5032810;28;20256;-75
2021/11/17 12:14:43;;;;;;;14.77;3.67;;;;;;;;;;5033348;28;20635;-77
2021/11/17 12:17:18;;;;;;;11.57;3.03;;;;;;;;;;5034147;28;20211;-75
2021/11/17 12:19:48;;;;;;;11.93;2.67;;;;;;;;;;5031377;28;20208;-75
2021/11/17 12:22:21;;;;;;;13.23;3.00;;;;;;;;;;5032800;28;20227;-75
2021/11/17 12:24:50;;;;;;;16.10;3.23;;;;;;;;;;5034009;28;20242;-75
2021/11/17 12:27:19;;;;;;;14.57;2.97;;;;;;;;;;5032930;28;20538;-75
2021/11/17 12:29:54;;;;;;;13.67;3.13;;;;;;;;;;5033239;28;20207;-75
2021/11/17 12:32:27;;;;;;;13.37;3.07;;;;;;;;;;5032259;28;20242;-77
2021/11/17 12:35:01;;;;;;;13.93;3.27;;;;;;;;;;5033364;28;20224;-78
2021/11/17 12:37:31;;;;;;;12.40;3.10;;;;;;;;;;5034047;28;21072;-78
2021/11/17 12:40:01;;;;;;;16.00;3.43;;;;;;;;;;5032383;28;20241;-78
2021/11/17 12:42:32;;;;;;;12.33;2.90;;;;;;;;;;5031293;28;20215;-75
2021/11/17 12:45:00;;;;;;;11.50;2.87;;;;;;;;;;5033455;28;20503;-76
2021/11/17 12:47:31;;;;;;;9.47;2.47;;;;;;;;;;5032771;28;20236;-76
2021/11/17 12:50:04;;;;;;;11.03;2.57;;;;;;;;;;5031163;28;20276;-76
2021/11/17 12:52:37;;;;;;;15.03;3.47;;;;;;;;;;5032192;28;20658;-77
2021/11/17 12:55:14;;;;;;;17.47;3.17;;;;;;;;;;5032133;28;20226;-76
2021/11/17 12:57:44;;;;;;;8.93;2.27;;;;;;;;;;5032252;28;20259;-76
2021/11/17 13:00:58;;;;;;;8.97;2.27;;;;;;;;;;5032681;28;20221;-76
2021/11/17 13:03:31;;;;;;;6.50;2.20;;;;;;;;;;4942181;28;20264;-77
2021/11/17 13:06:05;;;;;;;2.83;1.03;;;;;;;;;;4944569;28;20225;-78
2021/11/17 13:08:33;;;;;;;2.63;1.17;;;;;;;;;;4989949;28;20702;-77
2021/11/17 13:11:13;;;;;;;4.27;0.80;;;;;;;;;;5033400;28;20218;-77
2021/11/17 13:13:44;;;;;;;3.73;0.90;;;;;;;;;;5033414;28;20229;-77
2021/11/17 13:16:14;;;;;;;4.17;0.90;;;;;;;;;;5032766;28;20214;-76
2021/11/17 13:18:55;;;;;;;2.63;0.90;;;;;;;;;;5032810;28;20225;-77
2021/11/17 13:21:36;;;;;;;2.37;0.77;;;;;;;;;;5036151;28;20274;-79
2021/11/17 13:24:26;;;;;;;3.87;0.87;;;;;;;;;;5040567;28;20857;-79
2021/11/17 13:27:40;;;;;;;5.20;1.00;;;;;;;;;;5027651;28;20225;-76
2021/11/17 13:30:34;;;;;;;3.77;0.77;;;;;;;;;;5036627;28;20214;-79
2021/11/17 13:33:18;;;;;;;4.90;1.17;;;;;;;;;;5034305;28;20741;-79
2021/11/17 13:35:45;;;;;;;5.03;1.27;;;;;;;;;;5035123;28;20255;-79
2021/11/17 13:38:19;;;;;;;4.97;1.40;;;;;;;;;;5038274;28;20275;-78
2021/11/17 13:40:48;;;;;;;6.83;1.20;;;;;;;;;;5035720;28;20261;-79
2021/11/17 13:43:17;;;;;;;7.00;1.50;;;;;;;;;;5033157;28;20229;-76
2021/11/17 13:45:46;;;;;;;7.37;1.50;;;;;;;;;;5032606;28;20222;-78
2021/11/17 13:48:13;;;;;;;12.13;1.87;;;;;;;;;;5034950;28;20237;-78
2021/11/17 13:50:41;;;;;;;8.50;1.90;;;;;;;;;;5035861;28;20748;-78
2021/11/17 13:53:11;;;;;;;11.23;3.40;;;;;;;;;;5035255;28;20262;-78
2021/11/17 13:55:40;;;;;;;8.80;2.00;;;;;;;;;;5032061;28;20293;-76
2021/11/17 13:58:08;;;;;;;9.47;2.17;;;;;;;;;;5032458;28;20589;-76
2021/11/17 14:00:38;;;;;;;6.30;2.03;;;;;;;;;;5032068;28;20225;-76
2021/11/17 14:03:05;;;;;;;11.17;1.87;;;;;;;;;;5030542;28;20861;-76
2021/11/17 14:05:34;;;;;;;13.07;2.63;;;;;;;;;;5032270;28;20232;-78
2021/11/17 14:08:01;;;;;;;14.37;2.53;;;;;;;;;;5034800;28;20293;-78
2021/11/17 14:10:30;;;;;;;7.53;2.33;;;;;;;;;;5033934;28;20205;-76
2021/11/17 14:12:57;;;;;;;11.60;2.10;;;;;;;;;;5030598;28;20222;-76
2021/11/17 14:15:23;;;;;;;8.97;2.43;;;;;;;;;;5035458;28;20240;-78
2021/11/17 14:17:51;;;;;;;12.83;2.57;;;;;;;;;;5034884;28;20295;-78
2021/11/17 14:20:19;;;;;;;7.27;2.00;;;;;;;;;;5030344;28;20214;-76
2021/11/17 14:22:46;;;;;;;9.33;2.13;;;;;;;;;;5032087;28;20225;-76
2021/11/17 14:25:16;;;;;;;9.30;2.00;;;;;;;;;;5031242;28;21051;-76
2021/11/17 14:27:45;;;;;;;13.63;2.30;;;;;;;;;;5033486;28;20753;-77
2021/11/17 14:30:16;;;;;;;10.67;2.87;;;;;;;;;;5032007;28;20217;-78
2021/11/17 14:32:46;;;;;;;10.43;1.97;;;;;;;;;;5033939;28;20284;-78
2021/11/17 14:35:15;;;;;;;8.23;2.07;;;;;;;;;;5032818;28;20841;-78
2021/11/17 14:37:41;;;;;;;7.70;1.50;;;;;;;;;;5033144;28;20228;-78
2021/11/17 14:40:10;;;;;;;5.97;1.70;;;;;;;;;;5034755;28;20217;-79
2021/11/17 14:42:37;;;;;;;4.43;1.30;;;;;;;;;;5032677;28;20264;-78
2021/11/17 14:45:04;;;;;;;4.93;1.47;;;;;;;;;;5032652;28;21099;-78
2021/11/17 14:47:30;;;;;;;4.80;1.50;;;;;;;;;;5034231;28;20239;-78
2021/11/17 14:49:57;;;;;;;8.03;1.40;;;;;;;;;;5031350;28;20213;-78
2021/11/17 14:52:25;;;;;;;7.50;1.13;;;;;;;;;;5034292;28;20273;-78
2021/11/17 14:54:52;;;;;;;4.37;1.40;;;;;;;;;;5032809;28;20233;-78
2021/11/17 14:57:20;;;;;;;5.73;1.10;;;;;;;;;;5033552;28;20215;-76
2021/11/17 14:59:47;;;;;;;6.40;1.10;;;;;;;;;;5032134;28;20225;-78
2021/11/17 15:02:13;;;;;;;7.43;1.33;;;;;;;;;;5035949;28;20754;-78
2021/11/17 15:04:40;;;;;;;6.83;1.30;;;;;;;;;;5033560;28;20201;-79
2021/11/17 15:07:10;;;;;;;5.47;1.63;;;;;;;;;;5035173;28;20240;-79
2021/11/17 15:09:38;;;;;;;5.77;1.13;;;;;;;;;;5037860;28;20216;-79
2021/11/17 15:12:11;;;;;;;5.83;1.23;;;;;;;;;;5034515;28;20782;-79
2021/11/17 15:14:38;;;;;;;6.53;1.30;;;;;;;;;;5034317;28;20696;-79
2021/11/17 15:17:05;;;;;;;5.10;0.93;;;;;;;;;;5037300;28;20212;-79
2021/11/17 15:19:32;;;;;;;7.23;1.03;;;;;;;;;;5037809;28;20218;-79
2021/11/17 15:21:58;;;;;;;6.33;1.10;;;;;;;;;;5036521;28;20271;-79
2021/11/17 15:24:25;;;;;;;3.67;0.90;;;;;;;;;;5036306;28;20201;-78
2021/11/17 15:26:56;;;;;;;3.43;1.30;;;;;;;;;;5033969;28;20279;-79
2021/11/17 15:29:22;;;;;;;6.47;1.20;;;;;;;;;;5036540;28;20700;-79
2021/11/17 15:31:49;;;;;;;4.80;1.50;;;;;;;;;;5037010;28;20213;-79
2021/11/17 15:34:15;;;;;;;7.40;1.50;;;;;;;;;;5035184;28;20229;-79
2021/11/17 15:36:42;;;;;;;3.67;1.33;;;;;;;;;;5038410;28;20236;-79
2021/11/17 15:39:09;;;;;;;4.97;1.20;;;;;;;;;;5038260;28;20868;-78
2021/11/17 15:41:39;;;;;;;4.23;0.90;;;;;;;;;;5036643;28;20204;-79
2021/11/17 15:44:08;;;;;;;4.40;1.20;;;;;;;;;;5037580;28;20224;-79
2021/11/17 15:46:37;;;;;;;9.83;1.30;;;;;;;;;;5038155;28;20277;-78
2021/11/17 15:49:03;;;;;;;15.23;2.90;;;;;;;;;;5038458;28;20264;-78
2021/11/17 15:51:33;;;;;;;10.20;1.50;;;;;;;;;;5038822;28;20240;-78
2021/11/17 15:54:00;;;;;;;10.80;2.60;;;;;;;;;;5036952;28;20215;-79
2021/11/17 15:56:30;;;;;;;12.00;2.50;;;;;;;;;;5038331;28;20318;-78
2021/11/17 15:58:56;;;;;;;9.70;1.53;;;;;;;;;;5035660;28;20210;-78
2021/11/17 16:01:24;;;;;;;11.63;2.00;;;;;;;;;;5035788;28;20527;-79
2021/11/17 16:03:52;;;;;;;16.23;4.57;;;;;;;;;;5036321;28;20280;-79
2021/11/17 16:06:20;;;;;;;10.83;2.40;;;;;;;;;;5037360;28;20227;-78
2021/11/17 16:08:48;;;;;;;6.70;2.10;;;;;;;;;;5038688;28;20202;-79
2021/11/17 16:11:14;;;;;;;8.63;2.43;;;;;;;;;;5037056;28;20700;-77
2021/11/17 16:13:41;;;;;;;8.40;1.93;;;;;;;;;;5039087;28;20745;-79
2021/11/17 16:16:07;;;;;;;10.43;2.60;;;;;;;;;;5037547;28;20223;-79
2021/11/17 16:18:36;;;;;;;11.73;2.10;;;;;;;;;;5036918;28;20225;-79
2021/11/17 16:21:05;;;;;;;9.10;2.40;;;;;;;;;;5037137;28;20238;-78
2021/11/17 16:26:26;;;;;;;10.10;2.20;;;;;;;;;;5037490;28;20219;-78
2021/11/17 16:28:55;;;;;;;13.17;2.97;;;;;;;;;;5037178;28;20664;-79
2021/11/17 16:31:31;;;;;;;12.13;2.53;;;;;;;;;;5038941;28;20303;-79
2021/11/17 16:33:58;;;;;;;20.53;2.93;;;;;;;;;;5037337;28;20223;-79
2021/11/17 16:36:25;;;;;;;13.97;3.63;;;;;;;;;;5035955;28;20782;-78
2021/11/17 16:38:52;;;;;;;13.23;2.13;;;;;;;;;;5037954;28;20470;-78
2021/11/17 16:41:18;;;;;;;16.47;2.67;;;;;;;;;;5039477;28;20208;-79
2021/11/17 16:43:49;;;;;;;13.40;2.90;;;;;;;;;;5034579;28;20214;-79
2021/11/17 16:46:16;;;;;;;17.13;3.77;;;;;;;;;;5038334;28;20211;-79
2021/11/17 16:48:43;;;;;;;14.07;2.60;;;;;;;;;;5038957;28;20239;-79
2021/11/17 16:51:13;;;;;;;12.27;3.43;;;;;;;;;;5037190;28;20243;-79
2021/11/17 16:53:40;;;;;;;9.93;2.70;;;;;;;;;;5040219;28;20204;-79
2021/11/17 16:56:06;;;;;;;15.43;3.43;;;;;;;;;;5036004;28;20683;-79
2021/11/17 16:58:33;;;;;;;7.67;2.57;;;;;;;;;;5038516;28;20214;-80
2021/11/17 17:01:02;;;;;;;10.87;2.67;;;;;;;;;;5038152;28;21062;-79
2021/11/17 17:03:32;;;;;;;11.40;2.30;;;;;;;;;;5038533;28;20229;-79
2021/11/17 17:06:03;;;;;;;11.43;2.77;;;;;;;;;;5037215;28;20238;-79
2021/11/17 17:08:32;;;;;;;17.20;3.87;;;;;;;;;;5034794;28;20208;-79
2021/11/17 17:10:59;;;;;;;12.57;2.77;;;;;;;;;;5037110;28;20217;-79
2021/11/17 17:13:25;;;;;;;14.70;2.83;;;;;;;;;;5036243;28;20221;-78
2021/11/17 17:15:52;;;;;;;16.47;2.93;;;;;;;;;;5034679;28;20292;-77
2021/11/17 17:18:21;;;;;;;12.77;3.57;;;;;;;;;;5033079;28;20700;-78
2021/11/17 17:20:50;;;;;;;11.70;2.93;;;;;;;;;;5032705;28;20212;-78
2021/11/17 17:23:17;;;;;;;13.80;2.60;;;;;;;;;;5033288;28;20222;-77
2021/11/17 17:25:47;;;;;;;13.47;3.40;;;;;;;;;;5033389;28;20211;-77
2021/11/17 17:28:15;;;;;;;19.97;3.47;;;;;;;;;;5032483;28;20218;-78
2021/11/17 17:30:44;;;;;;;14.00;3.17;;;;;;;;;;5032136;28;20219;-77
2021/11/17 17:33:12;;;;;;;8.17;2.80;;;;;;;;;;5031805;28;20319;-77
2021/11/17 17:35:39;;;;;;;11.00;2.93;;;;;;;;;;5031101;28;20230;-77
2021/11/17 17:38:06;;;;;;;12.67;2.83;;;;;;;;;;5033383;28;20235;-78